Observations for LEEDS AND BRADFORD, United Kingdom (EGNM)

EGNM 230550Z 28005KT 230V310 CAVOK 09/06 Q1015  
EGNM 230520Z 28003KT CAVOK 09/06 Q1015  
EGNM 230450Z 29003KT CAVOK 09/06 Q1016  
EGNM 230420Z 25004KT 230V290 CAVOK 09/06 Q1016  
EGNM 230350Z 29004KT CAVOK 09/06 Q1016  
EGNM 230320Z 26005KT CAVOK 08/06 Q1016  
EGNM 230250Z 27006KT CAVOK 08/05 Q1016  
EGNM 230220Z VRB03KT CAVOK 08/05 Q1016  
EGNM 230150Z 27007KT CAVOK 08/05 Q1016  
EGNM 230120Z 26009KT CAVOK 08/05 Q1016  
EGNM 230050Z 27012KT CAVOK 08/05 Q1016  
EGNM 230020Z 28011KT CAVOK 08/05 Q1017  
EGNM 222350Z 31007KT CAVOK 09/05 Q1017  
EGNM 222320Z VRB03KT CAVOK 08/04 Q1017  
EGNM 222250Z VRB02KT CAVOK 09/04 Q1017  
EGNM 222220Z VRB02KT CAVOK 08/03 Q1017  
EGNM 222150Z 25005KT 220V280 CAVOK 09/03 Q1017  
EGNM 222120Z 27005KT CAVOK 09/04 Q1017  
EGNM 222050Z 27006KT CAVOK 10/04 Q1017  
EGNM 222020Z 27006KT CAVOK 11/04 Q1017  
EGNM 221950Z 28010KT CAVOK 11/04 Q1017  
EGNM 221920Z 28010KT CAVOK 13/05 Q1017  
EGNM 221850Z 27010KT 240V320 CAVOK 13/06 Q1017  
EGNM 221820Z 25010KT 9999 FEW030 14/07 Q1017
EGNM 221750Z 26011KT 230V310 9999 FEW028 14/07 Q1017
EGNM 221720Z 27013KT 230V300 9999 FEW028 15/07 Q1017
EGNM 221650Z 27012KT 230V300 9999 FEW028 15/08 Q1017
EGNM 221620Z 28014KT 240V310 9999 SCT035TCU 15/08 Q1017 
EGNM 221550Z 27014KT 240V320 9999 SCT035TCU 15/07 Q1017 
EGNM 221520Z 26013KT 230V290 9999 SCT035TCU 16/07 Q1017 
EGNM 221450Z 27013KT 240V310 9999 SCT040TCU 16/07 Q1017 
EGNM 221420Z 27014KT 230V310 9999 SCT040TCU 16/07 Q1017 
EGNM 221350Z 28013KT 240V310 9999 SCT038TCU 17/07 Q1017 
EGNM 221320Z 27011KT 230V310 9999 SCT040TCU 16/08 Q1017 
EGNM 221250Z 26008KT 230V290 9999 SCT036 16/07 Q1017
EGNM 221220Z 26010KT 220V280 9999 SCT047 15/06 Q1018
EGNM 221150Z 26010KT 220V310 9999 SCT042 15/06 Q1018
EGNM 221120Z 27009KT 240V320 9999 SCT040 15/06 Q1018
EGNM 221050Z 27009KT 240V310 9999 SCT035 15/05 Q1018
EGNM 221020Z 28008KT 240V310 9999 SCT033 13/05 Q1018
EGNM 220950Z 29009KT 250V320 9999 SCT034 13/06 Q1018
EGNM 220920Z 26009KT 200V290 9999 SCT034 13/06 Q1018
EGNM 220850Z 25011KT 220V290 9999 FEW032 14/05 Q1018
EGNM 220820Z 25009KT 220V290 9999 FEW024 13/05 Q1018
EGNM 220750Z 28009KT 9999 FEW020 13/07 Q1018
EGNM 220720Z 26008KT 9999 FEW016 12/07 Q1018
EGNM 220650Z 27007KT 230V310 CAVOK 11/06 Q1018  
EGNM 220620Z 28007KT 250V320 CAVOK 10/06 Q1018  
EGNM 220550Z 27007KT CAVOK 09/06 Q1018  
EGNM 220520Z 27010KT 9999 FEW047 09/05 Q1018